San Antonio, Valles Caldera, New Mexico Weather observations

Data are for 10 minute period ending at time listed.
 Day   Time   Solar   Ave.   Ave.  Ave.  Vector  Max.   Baro.   Total    
  of    of     Rad.   Air    Rel.  Wind   Wind   Wind  Press.  Precip.   
Year   Day            Temp.  Hum.  Speed  Dir.   Gust                    
2017   (MST)  Kw/m2    F      %     mph   deg.    mph    mb.     in.     
-------------------------------------------------------------------------
  56    7:30   0.02    0.6    81    0.4   291     2.4   99999.0    0.00 
  56    7:40   0.15    4.1    78    0.5    99     2.4   99999.0    0.00 
  56    7:50   0.19    9.9    63    0.4   145     1.8   99999.0    0.00 
  56    8:00   0.22   12.6    54    0.2   264     1.8   99999.0    0.00 
  56    8:10   0.26   13.6    54    0.8   216     3.0   99999.0    0.00 
  56    8:20   0.29   14.6    54    0.4   183     1.8   99999.0    0.00 
  56    8:30   0.32   15.2    55    0.5   206     1.8   99999.0    0.00 
  56    8:40   0.36   15.1    54    0.8   205     3.6   99999.0    0.00 
  56    8:50   0.39   15.9    57    1.4   178     2.4   99999.0    0.00 
  56    9:00   0.42   16.6    60    2.4   152     5.4   99999.0    0.00 
  56    9:10   0.46   17.5    58    2.0   219     5.4   99999.0    0.00 
  56    9:20   0.49   21.9    47    1.8   139     3.6   99999.0    0.00 
  56    9:30   0.52   24.1    38    2.3   234     4.8   99999.0    0.00 
  56    9:40   0.54   24.1    36    4.5   256     7.8   99999.0    0.00 
  56    9:50   0.57   26.5    31    8.6   277    15.5   99999.0    0.00 
  56   10:00   0.59   27.8    29   11.5   280    19.7   99999.0    0.00 
  56   10:10   0.62   26.8    31   11.7   267    17.9   99999.0    0.00 
  56   10:20   0.64   25.6    34   13.8   256    20.3   99999.0    0.00 
  56   10:30   0.66   25.8    34   14.4   264    21.5   99999.0    0.00 
  56   10:40   0.68   26.1    34   14.3   262    19.1   99999.0    0.00 
  56   10:50   0.70   26.6    34   13.6   267    22.1   99999.0    0.00 
  56   11:00   0.71   26.3    36   15.9   264    25.0   99999.0    0.00 
  56   11:10   0.73   27.5    33   15.2   268    21.5   99999.0    0.00 
  56   11:20   0.74   27.2    35   15.6   262    22.1   99999.0    0.00 
  56   11:30   0.75   27.3    35   14.7   262    21.5   99999.0    0.00 
  56   11:40   0.76   28.3    33   16.8   269    26.8   99999.0    0.00 
  56   11:50   0.77   29.3    32   14.9   289    22.7   99999.0    0.00 
  56   12:00   0.78   31.1    30   12.7   288    22.7   99999.0    0.00 
  56   12:10   0.78   29.6    33   14.6   265    24.5   99999.0    0.00 
  56   12:20   0.74   30.1    31   13.5   277    22.1   99999.0    0.00 
  56   12:30   0.79   29.9    36   13.9   265    25.0   99999.0    0.00 
  56   12:40   0.78   29.6    35   14.5   265    19.7   99999.0    0.00 
  56   12:50   0.72   28.9    37   15.4   255    24.5   99999.0    0.00 
  56   13:00   0.79   31.1    31   14.2   289    22.7   99999.0    0.00 
  56   13:10   0.72   32.2    30   13.7   283    23.3   99999.0    0.00 
  56   13:20   0.75   30.0    35   19.8   261    29.2   99999.0    0.00 
  56   13:30   0.77   30.4    33   15.3   269    23.9   99999.0    0.00 
  56   13:40   0.75   31.4    32   17.1   269    28.0   99999.0    0.00 
  56   13:50   0.62   30.5    33   14.8   268    25.6   99999.0    0.00 
  56   14:00   0.71   30.8    34   15.9   270    24.5   99999.0    0.00 
  56   14:10   0.67   31.8    31   17.2   262    28.0   99999.0    0.00 
  56   14:20   0.54   30.1    32   17.5   266    26.2   99999.0    0.00 
  56   14:30   0.60   30.5    31   17.9   273    27.4   99999.0    0.00 
  56   14:40   0.52   32.7    28   12.7   278    19.7   99999.0    0.00 
  56   14:50   0.50   32.9    29   12.2   279    26.8   99999.0    0.00 
  56   15:00   0.42   31.4    31   16.8   269    26.2   99999.0    0.00 
  56   15:10   0.40   31.4    30   13.4   280    20.9   99999.0    0.00 
  56   15:20   0.41   31.3    32   13.3   265    22.1   99999.0    0.00 
  56   15:30   0.40   32.0    30   12.1   274    19.7   99999.0    0.00 
  56   15:40   0.36   32.8    29   10.6   284    19.7   99999.0    0.00 
  56   15:50   0.34   32.2    30   11.2   270    19.1   99999.0    0.00 
  56   16:00   0.29   32.7    29   11.1   279    18.5   99999.0    0.00 
  56   16:10   0.26   32.2    29   11.9   289    19.7   99999.0    0.00 
  56   16:20   0.34   33.5    29   12.3   280    19.7   99999.0    0.00 
  56   16:30   0.28   32.7    30   12.8   274    19.7   99999.0    0.00 
  56   16:40   0.14   31.4    30   12.8   278    24.5   99999.0    0.00 
  56   16:50   0.13   30.3    34    8.2   285    14.3   99999.0    0.00 
  56   17:00   0.14   30.2    34    9.8   276    14.3   99999.0    0.00 
  56   17:10   0.08   29.6    32    9.6   294    18.5   99999.0    0.00 
  56   17:20   0.06   28.9    34    9.2   294    15.5   99999.0    0.00 
  56   17:30   0.07   28.8    34    8.7   290    12.5   99999.0    0.00 
  56   17:40   0.06   29.7    32    8.9   297    13.7   99999.0    0.00 
  56   17:50   0.02   28.5    33    9.2   299    14.9   99999.0    0.00 
  56   18:00   0.01   27.4    35    8.0   299    12.5   99999.0    0.00 
  56   18:10   0.00   27.0    36    7.7   299    10.8   99999.0    0.00 
  56   18:20   0.00   26.7    37    7.8   294    10.8   99999.0    0.00 
  56   18:30   0.00   26.4    38    7.1   292    13.1   99999.0    0.00 
  56   18:40   0.00   26.2    38    6.3   304     9.0   99999.0    0.00 
  56   18:50   0.00   26.2    38    6.3   295    10.8   99999.0    0.00 
  56   19:00   0.00   26.0    39    4.9   305     9.0   99999.0    0.00 
  56   19:10   0.00   25.5    39    3.8   311     7.8   99999.0    0.00 
  56   19:20   0.00   25.2    40    4.1   322     7.8   99999.0    0.00 
  56   19:30   0.00   24.8    40    3.9   329     6.6   99999.0    0.00 
  56   19:40   0.00   24.6    40    3.9   330     6.6   99999.0    0.00 
  56   19:50   0.00   24.4    40    3.9   331     6.0   99999.0    0.00 
  56   20:00   0.00   24.5    39    4.7   329     7.8   99999.0    0.00 
  56   20:10   0.00   24.7    38    4.3   328     7.8   99999.0    0.00 
  56   20:20   0.00   24.9    38    4.8   320     9.6   99999.0    0.00 
  56   20:30   0.00   24.8    38    4.5   323     7.2   99999.0    0.00 
  56   20:40   0.00   24.4    38    4.2   323     7.2   99999.0    0.00 
  56   20:50   0.00   24.4    37    5.2   325    10.8   99999.0    0.00 
  56   21:00   0.00   24.6    36    5.6   329    11.9   99999.0    0.00 
  56   21:10   0.00   24.6    36    5.5   331     7.8   99999.0    0.00 
  56   21:20   0.00   24.6    36    6.1   323    10.8   99999.0    0.00 
  56   21:30   0.00   24.7    34    5.8   325     9.6   99999.0    0.00 
  56   21:40   0.00   24.6    35    5.5   310     8.4   99999.0    0.00 
  56   21:50   0.00   24.3    36    4.1   324     6.6   99999.0    0.00 
  56   22:00   0.00   23.9    36    3.8   336     6.6   99999.0    0.00 
  56   22:10   0.00   23.9    36    3.9   330     7.2   99999.0    0.00 
  56   22:20   0.00   24.2    36    3.3   332     6.0   99999.0    0.00 
  56   22:30   0.00   24.1    38    3.1   327     4.8   99999.0    0.00 
  56   22:40   0.00   23.9    38    4.1   331     7.8   99999.0    0.00 
  56   22:50   0.00   24.4    36    6.5   310    14.3   99999.0    0.00 
  56   23:00   0.00   24.8    36    6.0   312     9.0   99999.0    0.00 
  56   23:10   0.00   24.6    36    6.0   309    11.3   99999.0    0.00 
  56   23:20   0.00   24.6    37    6.4   304    10.2   99999.0    0.00 
  56   23:30   0.00   24.8    37    7.9   295    11.9   99999.0    0.00 
  56   23:40   0.00   24.6    38    7.1   299    10.8   99999.0    0.00 
  56   23:50   0.00   24.5    38    7.9   296    11.9   99999.0    0.00 
  57    0:00   0.00   24.4    39    6.6   297    10.2   99999.0    0.00 
  57    0:10   0.00   24.0    41    7.4   296    11.9   99999.0    0.00 
  57    0:20   0.00   23.8    42    8.9   298    13.7   99999.0    0.00 
  57    0:30   0.00   23.7    43    8.5   296    13.1   99999.0    0.00 
  57    0:40   0.00   23.4    43    8.5   299    14.9   99999.0    0.00 
  57    0:50   0.00   23.3    43    9.4   298    14.3   99999.0    0.00 
  57    1:00   0.00   23.4    44   10.1   299    16.1   99999.0    0.00 
  57    1:10   0.00   23.5    47   11.7   295    17.9   99999.0    0.00 
  57    1:20   0.00   23.4    49    9.4   290    17.3   99999.0    0.00 
  57    1:30   0.00   23.1    50    8.0   292    13.1   99999.0    0.00 
  57    1:40   0.00   22.9    50    7.8   297    11.9   99999.0    0.00 
  57    1:50   0.00   22.8    50    8.0   297    11.3   99999.0    0.00 
  57    2:00   0.00   22.8    49    9.2   301    13.1   99999.0    0.00 
  57    2:10   0.00   22.9    49    8.9   300    14.9   99999.0    0.00 
  57    2:20   0.00   22.8    50    8.9   300    13.1   99999.0    0.00 
  57    2:30   0.00   22.8    50    9.4   297    13.7   99999.0    0.00 
  57    2:40   0.00   22.6    52   10.6   292    16.1   99999.0    0.00 
  57    2:50   0.00   22.4    53   11.5   283    18.5   99999.0    0.00 
  57    3:00   0.00   22.1    54   10.3   288    16.1   99999.0    0.00 
  57    3:10   0.00   21.8    56   11.0   294    18.5   99999.0    0.00 
  57    3:20   0.00   21.9    58   13.1   295    21.5   99999.0    0.00 
  57    3:30   0.00   21.8    59   12.4   298    18.5   99999.0    0.00 
  57    3:40   0.00   21.5    61   12.6   296    20.3   99999.0    0.00 
  57    3:50   0.00   21.2    63   11.4   288    18.5   99999.0    0.00 
  57    4:00   0.00   20.5    69   10.3   287    15.5   99999.0    0.00 
  57    4:10   0.00   19.9    73   10.6   298    16.1   99999.0    0.00 
  57    4:20   0.00   19.8    75   10.0   298    14.9   99999.0    0.00 
  57    4:30   0.00   19.7    77    8.9   299    13.1   99999.0    0.00 
  57    4:40   0.00   19.4    78    8.6   294    11.3   99999.0    0.00 
  57    4:50   0.00   19.2    78    7.6   300    11.9   99999.0    0.00 
  57    5:00   0.00   19.1    78    8.0   298    10.8   99999.0    0.00 
  57    5:10   0.00   19.0    80    7.9   294    11.9   99999.0    0.00 
  57    5:20   0.00   19.0    82    6.1   291     9.6   99999.0    0.00 
  57    5:30   0.00   18.9    83    6.3   296     9.0   99999.0    0.00 
  57    5:40   0.00   18.9    82    6.0   296     9.0   99999.0    0.00 
  57    5:50   0.00   18.7    81    6.9   297    10.2   99999.0    0.00 
  57    6:00   0.00   18.8    79    6.8   301     9.6   99999.0    0.00 
  57    6:10   0.00   18.8    80    6.3   292     9.6   99999.0    0.00 
  57    6:20   0.00   18.5    80    5.2   293     7.2   99999.0    0.00 
  57    6:30   0.00   18.2    80    3.5   298     6.0   99999.0    0.00 
  57    6:40   0.00   17.8    80    2.1   298     4.8   99999.0    0.00 
  57    6:50   0.00   17.3    81    1.5    53     3.6   99999.0    0.00 
  57    7:00   0.01   17.5    81    0.9    78     3.0   99999.0    0.00 
  57    7:10   0.02   17.8    80    0.0    53     1.2   99999.0    0.00 
  57    7:20   0.04   18.7    78    0.0   162     1.2   99999.0    0.00 

Return to San Antonio, Valles Caldera graphs page.


Western Regional Climate Center,wrcc@dri.edu